Time;durP1;ratioP1;P1;durP2;ratioP2;P2;SDS_P1;SDS_P2;PMS_P1;PMS_P2;Temp;Humidity;BMP_temperature;BMP_pressure;BME280_temperature;BME280_humidity;BME280_pressure;Samples;Min_cycle;Max_cycle;Signal;HPM_P1;HPM_P2
2022/11/29 00:01:42;;;;;;;45.87;24.40;;;7.90;99.90;;;;;;5035031;28;20194;-70
2022/11/29 00:04:09;;;;;;;51.43;25.93;;;7.90;99.90;;;;;;5035438;28;20182;-70
2022/11/29 00:06:35;;;;;;;48.63;25.03;;;7.90;99.90;;;;;;5037016;28;20636;-70
2022/11/29 00:09:05;;;;;;;44.93;24.33;;;7.90;99.90;;;;;;5035671;28;20707;-71
2022/11/29 00:14:19;;;;;;;50.60;24.47;;;7.90;99.90;;;;;;5036769;28;20198;-70
2022/11/29 00:16:50;;;;;;;51.83;24.70;;;7.90;99.90;;;;;;5036650;28;20185;-70
2022/11/29 00:19:15;;;;;;;48.13;25.83;;;8.00;99.90;;;;;;5035090;28;20175;-70
2022/11/29 00:21:41;;;;;;;51.80;25.80;;;7.90;99.90;;;;;;5018501;28;20190;-70
2022/11/29 00:24:08;;;;;;;48.83;27.10;;;7.90;99.90;;;;;;5036090;28;20554;-70
2022/11/29 00:26:35;;;;;;;48.80;25.97;;;7.90;99.90;;;;;;5036162;28;20628;-70
2022/11/29 00:29:02;;;;;;;50.37;27.07;;;7.90;99.90;;;;;;5035846;28;20286;-70
2022/11/29 00:31:30;;;;;;;52.57;27.60;;;7.90;99.90;;;;;;5034409;28;20672;-70
2022/11/29 00:33:57;;;;;;;58.00;26.90;;;7.90;99.90;;;;;;5036138;28;20254;-70
2022/11/29 00:36:23;;;;;;;51.60;26.60;;;7.90;99.90;;;;;;5036012;28;20187;-70
2022/11/29 00:38:48;;;;;;;57.77;26.97;;;7.90;99.90;;;;;;5035576;28;20240;-70
2022/11/29 00:41:14;;;;;;;57.47;26.47;;;7.90;99.90;;;;;;5035748;28;20198;-70
2022/11/29 00:43:40;;;;;;;47.97;25.30;;;7.90;99.90;;;;;;5035925;28;20182;-70
2022/11/29 00:46:07;;;;;;;51.67;27.67;;;7.90;99.90;;;;;;5036050;28;20664;-70
2022/11/29 00:48:33;;;;;;;52.70;24.77;;;8.00;99.90;;;;;;5035756;28;20257;-70
2022/11/29 00:50:59;;;;;;;56.27;26.37;;;8.00;99.90;;;;;;5035450;28;20201;-70
2022/11/29 00:53:25;;;;;;;54.87;26.67;;;7.90;99.90;;;;;;5035659;28;20184;-70
2022/11/29 00:55:52;;;;;;;57.50;27.40;;;7.90;99.90;;;;;;5034263;28;20182;-70
2022/11/29 00:58:19;;;;;;;57.33;27.47;;;7.90;99.90;;;;;;5036064;28;20175;-70
2022/11/29 01:00:45;;;;;;;60.03;27.33;;;7.90;99.90;;;;;;5035654;28;20195;-71
2022/11/29 01:03:11;;;;;;;54.80;26.00;;;7.90;99.90;;;;;;5035180;28;20636;-70
2022/11/29 01:05:37;;;;;;;47.73;23.73;;;8.00;99.90;;;;;;5035347;28;20230;-70
2022/11/29 01:08:03;;;;;;;50.90;24.43;;;8.00;99.90;;;;;;5035073;28;20234;-70
2022/11/29 01:10:29;;;;;;;49.03;25.03;;;8.00;99.90;;;;;;5035354;28;20282;-70
2022/11/29 01:12:55;;;;;;;42.03;23.90;;;8.00;99.90;;;;;;5035486;28;20171;-70
2022/11/29 01:15:21;;;;;;;53.80;25.03;;;8.00;99.90;;;;;;5035171;28;20226;-70
2022/11/29 01:17:48;;;;;;;52.20;25.27;;;8.00;99.90;;;;;;5035365;28;20167;-70
2022/11/29 01:20:14;;;;;;;58.80;26.13;;;8.00;99.90;;;;;;5035150;28;20202;-70
2022/11/29 01:22:40;;;;;;;57.67;26.23;;;8.00;99.90;;;;;;5035032;28;20507;-70
2022/11/29 01:25:08;;;;;;;46.83;23.03;;;8.00;99.90;;;;;;5033808;28;20179;-70
2022/11/29 01:27:34;;;;;;;46.00;22.50;;;8.00;99.90;;;;;;5035022;28;20171;-70
2022/11/29 01:30:00;;;;;;;54.90;25.43;;;8.00;99.90;;;;;;5033520;28;20230;-70
2022/11/29 01:32:25;;;;;;;47.90;23.23;;;8.00;99.90;;;;;;5033410;28;20206;-70
2022/11/29 01:34:51;;;;;;;59.47;25.90;;;8.00;99.90;;;;;;5033533;28;20175;-70
2022/11/29 01:37:17;;;;;;;52.77;25.20;;;8.00;99.90;;;;;;5034617;28;20186;-70
2022/11/29 01:39:43;;;;;;;43.80;23.03;;;8.00;99.90;;;;;;5034658;28;20242;-71
2022/11/29 01:42:13;;;;;;;53.13;24.07;;;8.00;99.90;;;;;;5033417;28;20183;-70
2022/11/29 01:44:38;;;;;;;47.13;23.80;;;8.00;99.90;;;;;;5034690;28;20179;-70
2022/11/29 01:47:04;;;;;;;53.60;24.33;;;8.00;99.90;;;;;;5016813;28;20609;-70
2022/11/29 01:49:37;;;;;;;49.20;24.03;;;8.00;99.90;;;;;;5016656;28;20223;-70
2022/11/29 01:52:08;;;;;;;49.73;23.23;;;8.00;99.90;;;;;;5033101;28;20179;-70
2022/11/29 01:54:38;;;;;;;52.13;23.30;;;8.00;99.90;;;;;;5034704;28;20246;-70
2022/11/29 01:57:06;;;;;;;58.70;24.53;;;8.00;99.90;;;;;;5034617;28;20235;-70
2022/11/29 01:59:34;;;;;;;53.00;24.20;;;8.00;99.90;;;;;;5034416;28;20195;-70
2022/11/29 02:02:06;;;;;;;49.13;22.37;;;8.00;99.90;;;;;;5034290;28;20178;-70
2022/11/29 02:04:34;;;;;;;46.03;22.93;;;8.00;99.90;;;;;;5034211;28;20293;-70
2022/11/29 02:07:00;;;;;;;52.67;24.37;;;8.00;99.90;;;;;;5034573;28;20178;-70
2022/11/29 02:09:26;;;;;;;48.60;22.93;;;8.00;99.90;;;;;;5033858;28;20222;-70
2022/11/29 02:12:14;;;;;;;46.17;23.10;;;8.00;99.90;;;;;;5034209;28;20339;-70
2022/11/29 02:14:40;;;;;;;52.27;22.13;;;8.00;99.90;;;;;;5021613;28;20191;-70
2022/11/29 02:17:14;;;;;;;45.40;23.13;;;8.00;99.90;;;;;;5033964;28;20640;-70
2022/11/29 02:19:52;;;;;;;50.17;22.40;;;8.10;99.90;;;;;;5033737;28;20202;-70
2022/11/29 02:22:30;;;;;;;51.40;23.00;;;8.10;99.90;;;;;;5032750;28;20244;-70
2022/11/29 02:25:16;;;;;;;46.73;21.67;;;8.00;99.90;;;;;;5034229;28;20163;-70
2022/11/29 02:27:41;;;;;;;50.83;22.73;;;8.00;99.90;;;;;;5013049;28;20611;-70
2022/11/29 02:30:26;;;;;;;55.93;23.67;;;8.00;99.90;;;;;;5033728;28;20195;-70
2022/11/29 02:33:13;;;;;;;56.93;23.70;;;8.00;99.90;;;;;;5033723;28;20160;-70
2022/11/29 02:35:53;;;;;;;53.93;23.13;;;8.00;99.90;;;;;;5033747;28;20218;-70
2022/11/29 02:38:19;;;;;;;53.30;21.83;;;8.00;99.90;;;;;;5032187;28;20794;-70
2022/11/29 02:40:54;;;;;;;54.07;23.17;;;8.10;99.90;;;;;;5032231;28;20290;-70
2022/11/29 02:43:36;;;;;;;47.47;20.83;;;8.10;99.90;;;;;;5033663;28;20650;-70
2022/11/29 02:46:23;;;;;;;52.53;23.07;;;8.10;99.90;;;;;;5033590;28;20639;-70
2022/11/29 02:49:06;;;;;;;55.37;23.07;;;8.20;99.90;;;;;;5032320;28;20230;-70
2022/11/29 02:51:46;;;;;;;63.90;22.53;;;8.20;99.90;;;;;;5048819;28;20163;-70
2022/11/29 02:54:37;;;;;;;54.43;24.07;;;8.20;99.90;;;;;;5033364;28;20163;-70
2022/11/29 02:57:33;;;;;;;60.50;23.20;;;8.20;99.90;;;;;;5032123;28;20226;-70
2022/11/29 03:00:12;;;;;;;81.80;25.13;;;8.30;99.90;;;;;;5033621;28;20223;-70
2022/11/29 03:03:07;;;;;;;65.73;24.40;;;8.30;99.90;;;;;;5048631;28;20593;-70
2022/11/29 03:05:54;;;;;;;77.33;25.77;;;8.20;99.90;;;;;;5033737;28;20198;-70
2022/11/29 03:08:34;;;;;;;75.83;24.70;;;8.20;99.90;;;;;;5033137;28;20225;-70
2022/11/29 03:11:28;;;;;;;67.33;25.70;;;8.20;99.90;;;;;;5031979;28;20239;-70
2022/11/29 03:14:13;;;;;;;68.80;24.10;;;8.20;99.90;;;;;;5031973;28;20186;-70
2022/11/29 03:16:53;;;;;;;62.33;22.37;;;8.20;99.90;;;;;;5033263;28;20198;-70
2022/11/29 03:19:44;;;;;;;55.73;23.30;;;8.20;99.90;;;;;;5033196;28;20206;-70
2022/11/29 03:22:28;;;;;;;62.60;23.10;;;8.20;99.90;;;;;;5033225;28;20588;-70
2022/11/29 03:25:05;;;;;;;54.53;22.47;;;8.20;99.90;;;;;;5033922;28;20262;-70
2022/11/29 03:28:02;;;;;;;56.47;21.90;;;8.20;99.90;;;;;;5035967;28;20175;-70
2022/11/29 03:30:31;;;;;;;51.57;20.13;;;8.20;99.90;;;;;;5029781;28;20215;-70
2022/11/29 03:33:35;;;;;;;44.10;18.00;;;8.10;99.90;;;;;;5035812;28;20262;-70
2022/11/29 03:36:43;;;;;;;48.57;20.33;;;8.20;99.90;;;;;;4996757;28;20209;-70
2022/11/29 03:39:17;;;;;;;48.77;20.17;;;8.20;99.90;;;;;;4988058;28;20203;-70
2022/11/29 03:41:54;;;;;;;47.43;19.10;;;8.20;99.90;;;;;;5017452;28;20218;-70
2022/11/29 03:44:43;;;;;;;59.13;22.27;;;8.20;99.90;;;;;;4999536;28;20168;-70
2022/11/29 03:47:13;;;;;;;47.40;19.37;;;8.20;99.90;;;;;;5017087;28;20156;-70
2022/11/29 03:50:04;;;;;;;45.67;19.60;;;8.10;99.90;;;;;;5015475;28;20216;-70
2022/11/29 03:52:52;;;;;;;44.07;19.00;;;8.20;99.90;;;;;;4999133;28;20263;-70
2022/11/29 03:55:17;;;;;;;54.13;20.83;;;8.10;99.90;;;;;;5015472;28;20211;-70
2022/11/29 03:58:04;;;;;;;52.87;20.33;;;8.20;99.90;;;;;;5017100;28;20168;-70
2022/11/29 04:00:45;;;;;;;68.83;26.07;;;8.20;99.90;;;;;;5016660;28;20275;-70
2022/11/29 04:03:37;;;;;;;60.87;23.60;;;8.10;99.90;;;;;;4999204;28;20175;-70
2022/11/29 04:06:43;;;;;;;65.37;24.67;;;8.10;99.90;;;;;;5016658;28;20164;-70
2022/11/29 04:09:46;;;;;;;57.57;22.20;;;8.10;99.90;;;;;;4986204;28;20208;-70
2022/11/29 04:12:46;;;;;;;71.67;25.33;;;8.10;99.90;;;;;;5018613;28;20171;-70
2022/11/29 04:15:35;;;;;;;84.43;28.37;;;8.10;99.90;;;;;;5036160;28;20187;-70
2022/11/29 04:18:20;;;;;;;90.37;28.80;;;8.10;99.90;;;;;;5018928;28;20179;-70
2022/11/29 04:20:54;;;;;;;81.23;28.10;;;8.00;99.90;;;;;;5036041;28;20611;-70
2022/11/29 04:23:36;;;;;;;73.37;25.70;;;8.00;99.90;;;;;;5036090;28;20158;-70
2022/11/29 04:26:33;;;;;;;87.97;23.87;;;8.00;99.90;;;;;;5036168;28;20155;-70
2022/11/29 04:29:11;;;;;;;70.03;23.47;;;8.00;99.90;;;;;;5035931;28;20199;-70
2022/11/29 04:31:55;;;;;;;82.10;24.63;;;8.00;99.90;;;;;;5036030;28;20212;-71
2022/11/29 04:34:58;;;;;;;56.57;19.57;;;8.00;99.90;;;;;;5036495;28;20162;-70
2022/11/29 04:37:45;;;;;;;57.80;19.37;;;8.00;99.90;;;;;;5035441;28;20258;-70
2022/11/29 04:40:48;;;;;;;65.33;21.87;;;8.00;99.90;;;;;;5036086;28;20293;-70
2022/11/29 04:43:33;;;;;;;63.83;21.57;;;8.00;99.90;;;;;;5036111;28;20182;-70
2022/11/29 04:46:27;;;;;;;68.30;22.27;;;8.00;99.90;;;;;;5018287;28;20554;-69
2022/11/29 04:49:20;;;;;;;73.97;21.93;;;8.00;99.90;;;;;;5035597;28;20211;-70
2022/11/29 04:51:57;;;;;;;60.73;20.83;;;7.90;99.90;;;;;;5035746;28;20246;-69
2022/11/29 04:55:07;;;;;;;62.30;21.67;;;7.90;99.90;;;;;;5035431;28;20155;-69
2022/11/29 04:57:48;;;;;;;67.73;24.23;;;8.00;99.90;;;;;;4955342;29;20832;-69
2022/11/29 05:00:22;;;;;;;61.83;23.77;;;7.90;99.90;;;;;;5014270;28;20622;-69
2022/11/29 05:03:05;;;;;;;71.17;24.47;;;7.90;99.90;;;;;;5034062;28;20278;-69
2022/11/29 05:06:03;;;;;;;68.60;23.97;;;7.90;99.90;;;;;;5035992;28;20179;-69
2022/11/29 05:08:38;;;;;;;73.07;22.27;;;7.90;99.90;;;;;;4994886;28;20700;-69
2022/11/29 05:11:17;;;;;;;59.53;22.90;;;7.90;99.90;;;;;;5035337;28;20195;-70
2022/11/29 05:13:49;;;;;;;79.63;25.43;;;7.90;99.90;;;;;;5035133;28;20210;-70
2022/11/29 05:16:33;;;;;;;73.47;24.13;;;7.90;99.90;;;;;;5035151;28;20166;-70
2022/11/29 05:19:36;;;;;;;80.40;26.53;;;7.90;99.90;;;;;;5035123;28;20208;-69
2022/11/29 05:22:19;;;;;;;66.90;24.30;;;7.90;99.90;;;;;;5035179;28;20182;-70
2022/11/29 05:24:59;;;;;;;73.97;24.53;;;7.90;99.90;;;;;;5035001;28;20170;-70
2022/11/29 05:28:19;;;;;;;65.53;25.00;;;7.90;99.90;;;;;;5035162;28;20159;-70
2022/11/29 05:31:00;;;;;;;70.60;26.63;;;7.90;99.90;;;;;;4954586;29;20236;-69
2022/11/29 05:33:44;;;;;;;64.13;24.83;;;7.90;99.90;;;;;;5026617;28;20187;-70
2022/11/29 05:36:37;;;;;;;52.00;20.80;;;7.90;99.90;;;;;;5034434;28;20175;-69
2022/11/29 05:39:16;;;;;;;72.93;25.73;;;7.90;99.90;;;;;;5016826;28;20652;-70
2022/11/29 05:41:53;;;;;;;83.37;25.77;;;7.90;99.90;;;;;;5035114;28;20254;-70
2022/11/29 05:44:39;;;;;;;68.87;23.70;;;7.90;99.90;;;;;;5034999;28;20174;-70
2022/11/29 05:47:08;;;;;;;75.13;26.87;;;7.90;99.90;;;;;;5033326;28;20171;-70
2022/11/29 05:49:59;;;;;;;73.57;26.30;;;7.90;99.90;;;;;;5032061;28;20210;-70
2022/11/29 05:53:02;;;;;;;64.83;25.67;;;7.90;99.90;;;;;;5034752;28;20196;-70
2022/11/29 05:55:55;;;;;;;72.40;26.67;;;7.90;99.90;;;;;;5016759;28;20183;-70
2022/11/29 05:58:35;;;;;;;74.07;25.47;;;7.90;99.90;;;;;;5016772;28;20187;-70
2022/11/29 06:01:25;;;;;;;64.73;24.03;;;7.80;99.90;;;;;;5034710;28;20256;-70
2022/11/29 06:04:32;;;;;;;56.17;22.83;;;7.80;99.90;;;;;;5035167;28;20262;-69
2022/11/29 06:07:13;;;;;;;50.80;21.63;;;7.80;99.90;;;;;;4954525;29;20700;-69
2022/11/29 06:09:55;;;;;;;33.33;17.63;;;7.70;99.90;;;;;;5026499;28;20223;-70
2022/11/29 06:12:23;;;;;;;40.53;18.23;;;7.70;99.90;;;;;;5035016;28;20159;-70
2022/11/29 06:15:03;;;;;;;35.13;17.20;;;7.70;99.90;;;;;;5033908;28;20203;-70
2022/11/29 06:17:35;;;;;;;32.70;17.47;;;7.70;99.90;;;;;;5034322;28;20167;-70
2022/11/29 06:20:34;;;;;;;37.27;19.07;;;7.70;99.90;;;;;;5016119;28;20210;-69
2022/11/29 06:23:00;;;;;;;44.77;21.63;;;7.80;99.90;;;;;;5034275;28;20246;-70
2022/11/29 06:25:52;;;;;;;44.03;20.83;;;7.80;99.90;;;;;;5016240;28;20624;-70
2022/11/29 06:28:37;;;;;;;43.97;21.97;;;7.80;99.90;;;;;;5032678;28;20219;-70
2022/11/29 06:31:20;;;;;;;55.37;22.03;;;7.80;99.90;;;;;;5016084;28;20675;-70
2022/11/29 06:34:21;;;;;;;41.87;20.80;;;7.80;99.90;;;;;;5034171;28;20163;-70
2022/11/29 06:36:49;;;;;;;43.97;18.93;;;7.80;99.90;;;;;;4990109;28;20603;-70
2022/11/29 06:39:16;;;;;;;58.77;22.63;;;7.80;99.90;;;;;;5033468;28;20175;-70
2022/11/29 06:41:41;;;;;;;49.87;20.77;;;7.80;99.90;;;;;;5034080;28;20179;-70
2022/11/29 06:44:09;;;;;;;55.73;24.23;;;7.90;99.90;;;;;;5032382;28;20241;-70
2022/11/29 06:47:09;;;;;;;58.87;23.93;;;7.90;99.90;;;;;;5033560;28;20640;-70
2022/11/29 06:49:41;;;;;;;56.77;23.83;;;7.80;99.90;;;;;;5029302;28;20223;-70
2022/11/29 06:52:25;;;;;;;57.87;23.90;;;7.70;99.90;;;;;;5033528;28;20173;-70
2022/11/29 06:55:03;;;;;;;56.60;24.03;;;7.70;99.90;;;;;;5015755;28;20175;-70
2022/11/29 06:57:44;;;;;;;47.03;21.03;;;7.70;99.90;;;;;;5016884;28;20543;-69
2022/11/29 07:00:22;;;;;;;60.07;23.03;;;7.70;99.90;;;;;;5033717;28;20320;-70
2022/11/29 07:03:27;;;;;;;56.57;21.43;;;7.70;99.90;;;;;;5032487;28;20252;-69
2022/11/29 07:05:53;;;;;;;55.67;23.37;;;7.70;99.90;;;;;;5032132;28;20189;-70
2022/11/29 07:08:22;;;;;;;64.83;25.63;;;7.80;99.90;;;;;;5033115;28;20205;-70
2022/11/29 07:10:51;;;;;;;74.80;29.53;;;7.80;99.90;;;;;;5033179;28;20190;-70
2022/11/29 07:13:18;;;;;;;69.03;28.60;;;7.80;99.90;;;;;;5033365;28;20197;-69
2022/11/29 07:15:59;;;;;;;68.93;29.50;;;7.70;99.90;;;;;;5033099;28;20187;-69
2022/11/29 07:18:57;;;;;;;73.77;28.67;;;7.80;99.90;;;;;;5015490;28;20171;-69
2022/11/29 07:21:38;;;;;;;96.03;31.97;;;7.90;99.90;;;;;;5032472;28;20293;-69
2022/11/29 07:24:25;;;;;;;113.53;35.37;;;7.80;99.90;;;;;;5032962;28;20175;-69
2022/11/29 07:27:06;;;;;;;95.17;31.97;;;7.80;99.90;;;;;;5015304;28;20175;-69
2022/11/29 07:29:37;;;;;;;112.80;36.60;;;7.70;99.90;;;;;;5032967;28;20207;-70
2022/11/29 07:32:18;;;;;;;110.57;34.57;;;7.70;99.90;;;;;;5032948;28;20164;-70
2022/11/29 07:35:21;;;;;;;113.77;35.87;;;7.70;99.90;;;;;;5015179;28;20171;-70
2022/11/29 07:38:08;;;;;;;102.10;33.80;;;7.70;99.90;;;;;;5015771;28;20214;-69
2022/11/29 07:40:53;;;;;;;97.83;32.53;;;7.60;99.90;;;;;;5031740;28;20358;-70
2022/11/29 07:43:34;;;;;;;105.67;33.07;;;7.70;99.90;;;;;;5033103;28;20289;-70
2022/11/29 07:46:00;;;;;;;94.40;30.97;;;7.70;99.90;;;;;;5031772;28;20175;-70
2022/11/29 07:48:26;;;;;;;95.73;31.33;;;7.70;99.90;;;;;;5031749;28;20302;-70
2022/11/29 07:50:53;;;;;;;96.23;31.80;;;7.70;99.90;;;;;;5031625;28;20227;-70
2022/11/29 07:53:21;;;;;;;93.77;30.27;;;7.70;99.90;;;;;;5032789;28;20179;-70
2022/11/29 07:55:48;;;;;;;100.10;30.43;;;7.70;99.90;;;;;;5032983;28;20578;-70
2022/11/29 07:58:16;;;;;;;97.50;31.17;;;7.70;99.90;;;;;;5031531;28;20194;-70
2022/11/29 08:00:42;;;;;;;98.33;32.17;;;7.70;99.90;;;;;;5031430;28;20580;-70
2022/11/29 08:03:09;;;;;;;92.23;31.57;;;7.70;99.90;;;;;;5032815;28;20171;-70
2022/11/29 08:05:36;;;;;;;103.77;32.43;;;7.70;99.90;;;;;;5031549;28;20233;-70
2022/11/29 08:08:02;;;;;;;85.93;30.30;;;7.60;99.90;;;;;;5032404;28;20210;-70
2022/11/29 08:10:27;;;;;;;109.87;36.17;;;7.60;99.90;;;;;;5032641;28;20240;-70
2022/11/29 08:12:53;;;;;;;101.97;31.53;;;7.60;99.90;;;;;;5034836;28;20184;-70
2022/11/29 08:15:21;;;;;;;97.90;34.37;;;7.60;99.90;;;;;;5046300;28;20274;-70
2022/11/29 08:17:47;;;;;;;85.50;31.13;;;7.60;99.90;;;;;;5036571;28;20234;-70
2022/11/29 08:20:14;;;;;;;88.47;31.73;;;7.60;99.90;;;;;;5036323;28;20796;-70
2022/11/29 08:22:40;;;;;;;77.60;29.47;;;7.70;99.90;;;;;;5036006;28;20171;-70
2022/11/29 08:25:06;;;;;;;78.80;30.17;;;7.70;99.90;;;;;;5036633;28;20182;-70
2022/11/29 08:27:34;;;;;;;94.47;30.87;;;7.70;99.90;;;;;;5036016;28;20229;-70
2022/11/29 08:29:59;;;;;;;83.40;29.70;;;7.80;99.90;;;;;;5035822;28;20206;-70
2022/11/29 08:32:26;;;;;;;84.43;29.67;;;7.80;99.90;;;;;;5051253;28;20179;-70
2022/11/29 08:34:51;;;;;;;76.00;29.70;;;7.80;99.90;;;;;;5051226;28;20671;-70
2022/11/29 08:37:17;;;;;;;85.37;28.00;;;7.80;99.90;;;;;;5035934;28;20171;-70
2022/11/29 08:39:43;;;;;;;73.73;26.43;;;7.80;99.90;;;;;;5035434;28;20707;-70
2022/11/29 08:42:09;;;;;;;76.00;26.53;;;7.80;99.90;;;;;;5035741;28;20660;-70
2022/11/29 08:44:35;;;;;;;65.87;24.40;;;7.70;99.90;;;;;;5035772;28;20198;-70
2022/11/29 08:50:02;;;;;;;63.33;22.67;;;7.70;99.90;;;;;;5035680;28;20217;-70
2022/11/29 08:55:19;;;;;;;62.00;23.20;;;7.60;99.90;;;;;;5035691;28;20520;-70
2022/11/29 08:57:47;;;;;;;62.63;24.23;;;7.60;99.90;;;;;;5035978;28;20210;-70
2022/11/29 09:00:13;;;;;;;55.07;23.13;;;7.60;99.90;;;;;;5050850;28;20196;-70
2022/11/29 09:02:47;;;;;;;64.17;22.07;;;7.60;99.90;;;;;;5035419;28;20261;-70
2022/11/29 09:05:14;;;;;;;64.27;24.03;;;7.60;99.90;;;;;;5035272;28;20167;-70
2022/11/29 09:07:46;;;;;;;62.13;23.67;;;7.60;99.90;;;;;;5050370;28;20233;-69
2022/11/29 09:10:16;;;;;;;58.83;23.83;;;7.70;99.90;;;;;;5035150;28;20211;-70
2022/11/29 09:12:43;;;;;;;58.37;23.67;;;7.70;99.90;;;;;;5034212;28;20237;-70
2022/11/29 09:15:11;;;;;;;63.30;22.00;;;7.70;99.90;;;;;;5035323;28;20213;-70
2022/11/29 09:17:37;;;;;;;61.93;24.20;;;7.70;99.90;;;;;;5033487;28;20229;-70
2022/11/29 09:20:04;;;;;;;55.27;24.00;;;7.70;99.90;;;;;;5033035;28;20215;-70
2022/11/29 09:22:45;;;;;;;57.33;22.23;;;7.70;99.90;;;;;;5033265;28;20267;-70
2022/11/29 09:25:12;;;;;;;56.80;22.77;;;7.70;99.90;;;;;;5016137;28;20190;-70
2022/11/29 09:27:41;;;;;;;52.30;21.10;;;7.70;99.90;;;;;;5033714;28;20175;-70
2022/11/29 09:30:15;;;;;;;80.57;25.20;;;7.70;99.90;;;;;;5016873;28;20213;-70
2022/11/29 09:32:45;;;;;;;66.17;22.13;;;7.70;99.90;;;;;;5035009;28;20167;-70
2022/11/29 09:35:15;;;;;;;48.40;21.57;;;7.80;99.90;;;;;;5033591;28;20183;-70
2022/11/29 09:37:42;;;;;;;51.97;20.43;;;7.80;99.90;;;;;;5033420;28;20175;-70
2022/11/29 09:40:18;;;;;;;52.53;21.70;;;7.80;99.90;;;;;;5016736;28;20229;-70
2022/11/29 09:42:54;;;;;;;46.20;21.10;;;7.80;99.90;;;;;;5032600;28;20281;-70
2022/11/29 09:45:29;;;;;;;46.07;21.10;;;7.70;99.90;;;;;;5033171;28;20233;-70
2022/11/29 09:48:27;;;;;;;53.90;20.23;;;7.70;99.90;;;;;;5034707;28;20155;-70
2022/11/29 09:51:09;;;;;;;51.33;20.17;;;7.70;99.90;;;;;;5033456;28;20290;-70
2022/11/29 09:54:13;;;;;;;51.23;21.63;;;7.70;99.90;;;;;;5032952;28;20550;-70
2022/11/29 09:56:51;;;;;;;51.43;20.87;;;7.80;99.90;;;;;;4938160;29;20182;-70
2022/11/29 09:59:45;;;;;;;50.77;19.50;;;7.70;99.90;;;;;;5006569;28;20253;-70
2022/11/29 10:02:46;;;;;;;52.67;20.73;;;7.70;99.90;;;;;;5016633;28;20648;-70
2022/11/29 10:05:25;;;;;;;44.37;17.60;;;7.70;99.90;;;;;;5000739;28;20200;-70
2022/11/29 10:08:18;;;;;;;45.33;18.63;;;7.80;99.90;;;;;;5033834;28;20546;-70
2022/11/29 10:10:51;;;;;;;47.40;19.00;;;7.80;99.90;;;;;;5016190;28;20218;-70
2022/11/29 10:13:39;;;;;;;40.27;18.50;;;7.90;99.90;;;;;;5033897;28;20185;-70
2022/11/29 10:16:23;;;;;;;50.83;18.93;;;7.90;99.90;;;;;;5033835;28;20187;-70
2022/11/29 10:19:02;;;;;;;45.37;19.50;;;7.90;99.90;;;;;;5034291;28;20190;-70
2022/11/29 10:21:35;;;;;;;46.17;19.57;;;7.80;99.90;;;;;;5033968;28;20222;-70
2022/11/29 10:24:08;;;;;;;32.40;16.07;;;7.80;99.90;;;;;;5032503;28;20640;-70
2022/11/29 10:26:34;;;;;;;45.90;19.10;;;7.80;99.90;;;;;;5034189;28;20167;-70
2022/11/29 10:29:00;;;;;;;38.50;16.67;;;7.80;99.90;;;;;;5032571;28;20229;-70
2022/11/29 10:31:27;;;;;;;40.87;16.47;;;7.80;99.90;;;;;;5033936;28;20199;-70
2022/11/29 10:33:55;;;;;;;50.30;16.53;;;7.80;99.90;;;;;;5033958;28;20181;-70
2022/11/29 10:36:38;;;;;;;37.93;16.77;;;7.80;99.90;;;;;;5033044;28;20167;-70
2022/11/29 10:39:19;;;;;;;51.00;17.43;;;7.80;99.90;;;;;;5033727;28;20187;-70
2022/11/29 10:41:52;;;;;;;44.93;17.07;;;7.90;99.90;;;;;;5034007;28;20167;-70
2022/11/29 10:44:19;;;;;;;41.20;16.80;;;7.90;99.90;;;;;;5034041;28;20684;-70
2022/11/29 10:46:46;;;;;;;55.90;19.67;;;7.90;99.90;;;;;;5033474;28;20546;-70
2022/11/29 10:49:15;;;;;;;52.70;19.60;;;7.90;99.90;;;;;;5033926;28;20195;-70
2022/11/29 10:51:41;;;;;;;49.80;19.27;;;8.00;99.90;;;;;;5033816;28;20175;-70
2022/11/29 10:54:13;;;;;;;60.23;20.87;;;7.90;99.90;;;;;;5032121;28;20175;-70
2022/11/29 10:56:40;;;;;;;57.07;20.27;;;8.00;99.90;;;;;;5033430;28;20175;-70
2022/11/29 10:59:08;;;;;;;45.83;19.93;;;8.00;99.90;;;;;;5033677;28;20271;-70
2022/11/29 11:01:41;;;;;;;57.13;19.83;;;8.00;99.90;;;;;;5033335;28;20198;-70
2022/11/29 11:04:22;;;;;;;46.13;18.73;;;8.00;99.90;;;;;;5032198;28;20599;-70
2022/11/29 11:06:55;;;;;;;52.50;19.40;;;8.00;99.90;;;;;;5033593;28;20163;-70
2022/11/29 11:09:32;;;;;;;55.33;19.67;;;8.00;99.90;;;;;;5032277;28;20261;-70
2022/11/29 11:12:01;;;;;;;61.60;19.30;;;8.00;99.90;;;;;;5015820;28;20174;-70
2022/11/29 11:14:35;;;;;;;51.57;20.97;;;8.00;99.90;;;;;;5031988;28;20663;-70
2022/11/29 11:17:20;;;;;;;45.17;19.13;;;8.00;99.90;;;;;;5032063;28;20659;-70
2022/11/29 11:19:54;;;;;;;54.93;18.80;;;8.00;99.90;;;;;;5033626;28;20195;-70
2022/11/29 11:22:22;;;;;;;46.77;18.23;;;8.00;99.90;;;;;;5032384;28;20183;-70
2022/11/29 11:25:02;;;;;;;50.77;18.77;;;8.10;99.90;;;;;;5033530;28;20179;-70
2022/11/29 11:27:34;;;;;;;41.37;17.23;;;8.10;99.90;;;;;;5033411;28;20163;-70
2022/11/29 11:30:00;;;;;;;42.37;16.70;;;8.10;99.90;;;;;;5033117;28;20733;-70
2022/11/29 11:32:26;;;;;;;42.23;15.77;;;8.20;99.90;;;;;;5031857;28;20555;-70
2022/11/29 11:34:59;;;;;;;40.83;17.60;;;8.20;99.90;;;;;;5033085;28;20222;-70
2022/11/29 11:37:26;;;;;;;36.37;16.70;;;8.30;99.90;;;;;;5033676;28;20159;-70
2022/11/29 11:39:55;;;;;;;39.20;17.37;;;8.30;99.90;;;;;;5032779;28;20199;-70
2022/11/29 11:42:37;;;;;;;36.73;14.43;;;8.30;99.90;;;;;;5033266;28;20176;-70
2022/11/29 11:45:11;;;;;;;38.77;17.23;;;8.40;99.90;;;;;;5031835;28;20168;-70
2022/11/29 11:47:45;;;;;;;33.37;15.73;;;8.40;99.90;;;;;;5035013;28;20198;-70
2022/11/29 11:50:14;;;;;;;37.40;16.50;;;8.50;99.90;;;;;;5036988;28;20226;-70
2022/11/29 11:52:39;;;;;;;36.63;16.37;;;8.50;99.90;;;;;;5036064;28;20174;-70
2022/11/29 11:55:24;;;;;;;39.53;15.77;;;8.50;99.90;;;;;;5019085;28;20542;-70
2022/11/29 11:58:14;;;;;;;30.03;15.43;;;8.50;99.90;;;;;;5036898;28;20160;-70
2022/11/29 12:00:54;;;;;;;46.23;17.73;;;8.50;99.90;;;;;;5019047;28;20627;-70
2022/11/29 12:03:31;;;;;;;37.90;15.87;;;8.50;99.90;;;;;;5036446;28;20175;-70
2022/11/29 12:06:26;;;;;;;44.97;18.23;;;8.60;99.90;;;;;;5036827;28;20184;-70
2022/11/29 12:09:18;;;;;;;35.87;16.83;;;8.60;99.90;;;;;;5035067;28;20203;-70
2022/11/29 12:12:05;;;;;;;46.17;16.53;;;8.50;99.90;;;;;;5018019;28;20211;-70
2022/11/29 12:14:44;;;;;;;48.30;18.53;;;8.50;99.90;;;;;;5036562;28;20187;-70
2022/11/29 12:17:31;;;;;;;46.13;18.97;;;8.50;99.90;;;;;;5035043;28;20244;-70
2022/11/29 12:20:01;;;;;;;50.60;21.43;;;8.50;99.90;;;;;;5036027;28;20201;-70
2022/11/29 12:22:38;;;;;;;42.07;18.83;;;8.50;99.90;;;;;;5034944;28;20179;-70
2022/11/29 12:25:09;;;;;;;54.90;22.17;;;8.50;99.90;;;;;;5035891;28;20624;-70
2022/11/29 12:27:35;;;;;;;49.93;22.97;;;8.40;99.90;;;;;;5036060;28;20170;-70
2022/11/29 12:30:01;;;;;;;55.33;23.23;;;8.50;99.90;;;;;;5036173;28;20290;-70
2022/11/29 12:32:51;;;;;;;63.53;23.50;;;8.50;99.90;;;;;;5034793;28;20236;-70
2022/11/29 12:35:27;;;;;;;53.63;21.63;;;8.50;99.90;;;;;;5018251;28;20175;-70
2022/11/29 12:38:16;;;;;;;53.17;22.13;;;8.50;99.90;;;;;;5034582;28;20223;-70
2022/11/29 12:41:16;;;;;;;60.20;22.17;;;8.50;99.90;;;;;;5035924;28;20195;-70
2022/11/29 12:44:03;;;;;;;53.50;21.10;;;8.50;99.90;;;;;;5017951;28;20214;-70
2022/11/29 12:46:31;;;;;;;46.07;20.10;;;8.50;99.90;;;;;;5035724;28;20182;-70
2022/11/29 12:49:28;;;;;;;38.33;19.40;;;8.50;99.90;;;;;;5035612;28;20206;-70
2022/11/29 12:52:00;;;;;;;45.43;20.63;;;8.50;99.90;;;;;;5035831;28;20174;-70
2022/11/29 12:55:07;;;;;;;40.77;19.33;;;8.60;99.90;;;;;;5034505;28;20624;-70
2022/11/29 12:58:00;;;;;;;50.23;19.60;;;8.60;99.90;;;;;;5024832;28;20191;-70
2022/11/29 13:00:32;;;;;;;39.97;19.07;;;8.60;99.90;;;;;;5034391;28;20548;-70
2022/11/29 13:03:16;;;;;;;55.60;20.00;;;8.70;99.90;;;;;;5034312;28;20171;-70
2022/11/29 13:05:42;;;;;;;43.77;18.73;;;8.70;99.90;;;;;;5036002;28;20159;-70
2022/11/29 13:08:25;;;;;;;47.67;18.80;;;8.80;99.90;;;;;;5035192;28;20652;-70
2022/11/29 13:10:54;;;;;;;48.33;19.23;;;8.80;99.90;;;;;;5035181;28;20191;-70
2022/11/29 13:13:35;;;;;;;44.07;19.37;;;8.80;99.90;;;;;;5017456;28;20179;-70
2022/11/29 13:16:18;;;;;;;47.90;20.77;;;8.80;99.90;;;;;;5035147;28;20319;-70
2022/11/29 13:18:57;;;;;;;44.97;19.07;;;8.80;99.90;;;;;;5017356;28;20179;-70
2022/11/29 13:21:44;;;;;;;37.80;19.33;;;8.80;99.90;;;;;;5035059;28;20195;-70
2022/11/29 13:24:15;;;;;;;38.70;18.33;;;8.90;99.90;;;;;;5035176;28;20171;-70
2022/11/29 13:26:42;;;;;;;40.07;17.70;;;9.00;99.90;;;;;;5035310;28;20639;-70
2022/11/29 13:29:15;;;;;;;47.43;19.50;;;8.90;99.90;;;;;;5035100;28;20202;-70
2022/11/29 13:31:41;;;;;;;47.20;20.07;;;8.80;99.90;;;;;;5033599;28;20168;-69
2022/11/29 13:34:26;;;;;;;46.10;20.57;;;8.90;99.90;;;;;;5033544;28;20229;-69